RSCU73 YCBG-YCBG
Flight info
| Callsign | RSCU73 |
|---|---|
| Flight time | N/A |
| Altitude | 5500 |
| Route | VFR |
| Aircraft | B412/M-SDE3FGHIRWY/H |
Departure
| Time | 2026-04-16 03:17 |
|---|---|
| Airport | Cambridge Aerodrome (YCBG) |
Arrival
| Time | N/A |
|---|---|
| Airport | Cambridge Aerodrome (YCBG) |
| Time | Latitude | Longitude | Altitude | Speed | Heading |
|---|---|---|---|---|---|
| 2026-04-16 03:11 | -42.82983 | 147.47690 | 38 ft | 0 kts | 0° |
| 2026-04-16 03:16 | -42.82978 | 147.47704 | 61 ft | 6 kts | 359° |
| 2026-04-16 03:16 | -42.82904 | 147.47758 | 68 ft | 20 kts | 24° |
| 2026-04-16 03:16 | -42.82696 | 147.47791 | 86 ft | 41 kts | 8° |
| 2026-04-16 03:16 | -42.82455 | 147.47595 | 194 ft | 38 kts | 317° |
| 2026-04-16 03:17 | -42.82213 | 147.47340 | 360 ft | 49 kts | 323° |
| 2026-04-16 03:17 | -42.81945 | 147.47076 | 648 ft | 45 kts | 333° |
| 2026-04-16 03:17 | -42.81624 | 147.46989 | 983 ft | 52 kts | 350° |
| 2026-04-16 03:17 | -42.81314 | 147.47328 | 1244 ft | 67 kts | 50° |
| 2026-04-16 03:18 | -42.81126 | 147.47889 | 1502 ft | 64 kts | 51° |
| 2026-04-16 03:18 | -42.80914 | 147.48464 | 1904 ft | 68 kts | 48° |
| 2026-04-16 03:18 | -42.80687 | 147.49018 | 2360 ft | 67 kts | 41° |
| 2026-04-16 03:18 | -42.80439 | 147.49563 | 2799 ft | 68 kts | 34° |
| 2026-04-16 03:19 | -42.80172 | 147.50099 | 3199 ft | 69 kts | 31° |
| 2026-04-16 03:19 | -42.79892 | 147.50616 | 3417 ft | 66 kts | 23° |
| 2026-04-16 03:19 | -42.79600 | 147.51105 | 3478 ft | 67 kts | 20° |
| 2026-04-16 03:19 | -42.79302 | 147.51583 | 3501 ft | 66 kts | 21° |
| 2026-04-16 03:20 | -42.79002 | 147.52047 | 3516 ft | 64 kts | 19° |
| 2026-04-16 03:20 | -42.78708 | 147.52487 | 3523 ft | 63 kts | 16° |
| 2026-04-16 03:20 | -42.78405 | 147.52927 | 3529 ft | 64 kts | 14° |
| 2026-04-16 03:20 | -42.78097 | 147.53364 | 3527 ft | 64 kts | 15° |
| 2026-04-16 03:21 | -42.77782 | 147.53800 | 3527 ft | 66 kts | 15° |
| 2026-04-16 03:21 | -42.77459 | 147.54241 | 3525 ft | 65 kts | 14° |
| 2026-04-16 03:21 | -42.77135 | 147.54678 | 3527 ft | 66 kts | 15° |
| 2026-04-16 03:21 | -42.76812 | 147.55110 | 3524 ft | 64 kts | 16° |
| 2026-04-16 03:22 | -42.76494 | 147.55531 | 3524 ft | 63 kts | 15° |
| 2026-04-16 03:22 | -42.76184 | 147.55941 | 3525 ft | 62 kts | 20° |
| 2026-04-16 03:22 | -42.75881 | 147.56341 | 3530 ft | 60 kts | 20° |
| 2026-04-16 03:22 | -42.75574 | 147.56735 | 3526 ft | 62 kts | 14° |
| 2026-04-16 03:23 | -42.75257 | 147.57140 | 3527 ft | 63 kts | 9° |
| 2026-04-16 03:23 | -42.74940 | 147.57546 | 3528 ft | 62 kts | 9° |
| 2026-04-16 03:23 | -42.74626 | 147.57944 | 3530 ft | 61 kts | 8° |
| 2026-04-16 03:23 | -42.74324 | 147.58328 | 3523 ft | 58 kts | 6° |
| 2026-04-16 03:24 | -42.74025 | 147.58702 | 3525 ft | 60 kts | 8° |
| 2026-04-16 03:24 | -42.73713 | 147.59089 | 3525 ft | 61 kts | 13° |
| 2026-04-16 03:24 | -42.73403 | 147.59476 | 3527 ft | 60 kts | 11° |
| 2026-04-16 03:24 | -42.73089 | 147.59867 | 3528 ft | 61 kts | 9° |
| 2026-04-16 03:25 | -42.72782 | 147.60251 | 3529 ft | 58 kts | 10° |
| 2026-04-16 03:25 | -42.72494 | 147.60615 | 3529 ft | 55 kts | 7° |
| 2026-04-16 03:25 | -42.72205 | 147.60971 | 3528 ft | 57 kts | 5° |
| 2026-04-16 03:25 | -42.71914 | 147.61333 | 3529 ft | 56 kts | 4° |
| 2026-04-16 03:26 | -42.71627 | 147.61687 | 3519 ft | 59 kts | 9° |
| 2026-04-16 03:26 | -42.71311 | 147.62082 | 3530 ft | 61 kts | 11° |
| 2026-04-16 03:26 | -42.70990 | 147.62476 | 3532 ft | 66 kts | 14° |
| 2026-04-16 03:26 | -42.70647 | 147.62902 | 3531 ft | 63 kts | 11° |
| 2026-04-16 03:27 | -42.70334 | 147.63298 | 3530 ft | 61 kts | 11° |
| 2026-04-16 03:27 | -42.70025 | 147.63683 | 3529 ft | 61 kts | 16° |
| 2026-04-16 03:27 | -42.69716 | 147.64075 | 3533 ft | 58 kts | 12° |
| 2026-04-16 03:27 | -42.69432 | 147.64433 | 3535 ft | 56 kts | 5° |
| 2026-04-16 03:28 | -42.69149 | 147.64787 | 3529 ft | 52 kts | 7° |
| 2026-04-16 03:28 | -42.68874 | 147.65127 | 3533 ft | 56 kts | 7° |
| 2026-04-16 03:28 | -42.68570 | 147.65493 | 3536 ft | 59 kts | 5° |
| 2026-04-16 03:28 | -42.68265 | 147.65867 | 3534 ft | 58 kts | 4° |
| 2026-04-16 03:29 | -42.67973 | 147.66228 | 3527 ft | 57 kts | 5° |
| 2026-04-16 03:29 | -42.67664 | 147.66601 | 3532 ft | 61 kts | 7° |
| 2026-04-16 03:29 | -42.67354 | 147.66983 | 3532 ft | 59 kts | 6° |
| 2026-04-16 03:29 | -42.67066 | 147.67344 | 3531 ft | 54 kts | 3° |
| 2026-04-16 03:30 | -42.66791 | 147.67682 | 3535 ft | 54 kts | 1° |
| 2026-04-16 03:30 | -42.66494 | 147.68038 | 3534 ft | 59 kts | 3° |
| 2026-04-16 03:30 | -42.66186 | 147.68412 | 3539 ft | 59 kts | 2° |
| 2026-04-16 03:30 | -42.65887 | 147.68777 | 3536 ft | 57 kts | 0° |
| 2026-04-16 03:31 | -42.65595 | 147.69134 | 3536 ft | 57 kts | 1° |
| 2026-04-16 03:31 | -42.65289 | 147.69506 | 3538 ft | 61 kts | 5° |
| 2026-04-16 03:31 | -42.64974 | 147.69894 | 3534 ft | 61 kts | 5° |
| 2026-04-16 03:31 | -42.64661 | 147.70282 | 3523 ft | 61 kts | 12° |
| 2026-04-16 03:32 | -42.64358 | 147.70668 | 3530 ft | 60 kts | 7° |
| 2026-04-16 03:32 | -42.64052 | 147.71054 | 3524 ft | 61 kts | 9° |
| 2026-04-16 03:34 | -42.61852 | 147.73757 | 3525 ft | 83 kts | 13° |
| 2026-04-16 03:34 | -42.61350 | 147.74347 | 3542 ft | 99 kts | 20° |
| 2026-04-16 03:34 | -42.60860 | 147.74961 | 3535 ft | 94 kts | 20° |
| 2026-04-16 03:34 | -42.60378 | 147.75565 | 3539 ft | 94 kts | 19° |
| 2026-04-16 03:35 | -42.59893 | 147.76166 | 3539 ft | 95 kts | 19° |
| 2026-04-16 03:35 | -42.59401 | 147.76774 | 3536 ft | 94 kts | 21° |
| 2026-04-16 03:35 | -42.58936 | 147.77355 | 3538 ft | 89 kts | 19° |
| 2026-04-16 03:35 | -42.58476 | 147.77922 | 3540 ft | 90 kts | 20° |
| 2026-04-16 03:36 | -42.58011 | 147.78494 | 3545 ft | 89 kts | 19° |
| 2026-04-16 03:36 | -42.57556 | 147.79051 | 3543 ft | 88 kts | 18° |
| 2026-04-16 03:36 | -42.57098 | 147.79612 | 3545 ft | 89 kts | 20° |
| 2026-04-16 03:36 | -42.56646 | 147.80166 | 3544 ft | 89 kts | 20° |
| 2026-04-16 03:37 | -42.56186 | 147.80731 | 3539 ft | 90 kts | 21° |
| 2026-04-16 03:37 | -42.55723 | 147.81303 | 3542 ft | 90 kts | 20° |
| 2026-04-16 03:37 | -42.55261 | 147.81871 | 3543 ft | 90 kts | 19° |
| 2026-04-16 03:37 | -42.54796 | 147.82439 | 3545 ft | 90 kts | 19° |
| 2026-04-16 03:38 | -42.54322 | 147.83015 | 3549 ft | 92 kts | 20° |
| 2026-04-16 03:38 | -42.53847 | 147.83592 | 3546 ft | 91 kts | 21° |
| 2026-04-16 03:38 | -42.53536 | 147.83972 | 3546 ft | 90 kts | 21° |
| 2026-04-16 03:38 | -42.53069 | 147.84548 | 3546 ft | 91 kts | 20° |
| 2026-04-16 03:39 | -42.52604 | 147.85127 | 3547 ft | 90 kts | 21° |
| 2026-04-16 03:39 | -42.52144 | 147.85695 | 3546 ft | 89 kts | 21° |
| 2026-04-16 03:39 | -42.51684 | 147.86258 | 3553 ft | 88 kts | 20° |
| 2026-04-16 03:39 | -42.51236 | 147.86804 | 3544 ft | 86 kts | 17° |
| 2026-04-16 03:40 | -42.50788 | 147.87351 | 3543 ft | 90 kts | 19° |
| 2026-04-16 03:40 | -42.50315 | 147.87926 | 3549 ft | 91 kts | 20° |
| 2026-04-16 03:40 | -42.49846 | 147.88500 | 3532 ft | 95 kts | 25° |
| 2026-04-16 03:40 | -42.49308 | 147.89159 | 3560 ft | 101 kts | 24° |
| 2026-04-16 03:41 | -42.48803 | 147.89780 | 3552 ft | 97 kts | 22° |
| 2026-04-16 03:41 | -42.48299 | 147.90390 | 3546 ft | 95 kts | 23° |
| 2026-04-16 03:41 | -42.47813 | 147.90985 | 3547 ft | 98 kts | 21° |
| 2026-04-16 03:41 | -42.47294 | 147.91614 | 3551 ft | 101 kts | 23° |
| 2026-04-16 03:42 | -42.46772 | 147.92248 | 3550 ft | 101 kts | 22° |
| 2026-04-16 03:42 | -42.46247 | 147.92889 | 3551 ft | 102 kts | 24° |
| 2026-04-16 03:42 | -42.45720 | 147.93532 | 3548 ft | 103 kts | 23° |
| 2026-04-16 03:42 | -42.45187 | 147.94184 | 3549 ft | 103 kts | 23° |
| 2026-04-16 03:43 | -42.44656 | 147.94833 | 3541 ft | 104 kts | 20° |
| 2026-04-16 03:43 | -42.44129 | 147.95478 | 3543 ft | 100 kts | 21° |
| 2026-04-16 03:43 | -42.43618 | 147.96106 | 3544 ft | 97 kts | 19° |
| 2026-04-16 03:43 | -42.43123 | 147.96714 | 3543 ft | 96 kts | 18° |
| 2026-04-16 03:44 | -42.42634 | 147.97310 | 3551 ft | 95 kts | 17° |
| 2026-04-16 03:44 | -42.42145 | 147.97898 | 3548 ft | 96 kts | 17° |
| 2026-04-16 03:44 | -42.41631 | 147.98506 | 3549 ft | 99 kts | 19° |
| 2026-04-16 03:44 | -42.41123 | 147.99117 | 3544 ft | 97 kts | 18° |
| 2026-04-16 03:45 | -42.40604 | 147.99741 | 3545 ft | 101 kts | 20° |
| 2026-04-16 03:45 | -42.40086 | 148.00372 | 3547 ft | 98 kts | 19° |
| 2026-04-16 03:45 | -42.39584 | 148.00982 | 3542 ft | 100 kts | 19° |
| 2026-04-16 03:45 | -42.39057 | 148.01627 | 3543 ft | 100 kts | 19° |
| 2026-04-16 03:46 | -42.38550 | 148.02254 | 3545 ft | 101 kts | 20° |
| 2026-04-16 03:46 | -42.38026 | 148.02895 | 3549 ft | 101 kts | 20° |
| 2026-04-16 03:46 | -42.37511 | 148.03525 | 3548 ft | 98 kts | 19° |
| 2026-04-16 03:46 | -42.37000 | 148.04146 | 3544 ft | 100 kts | 18° |
| 2026-04-16 03:47 | -42.36483 | 148.04778 | 3543 ft | 100 kts | 18° |
| 2026-04-16 03:47 | -42.35965 | 148.05412 | 3543 ft | 101 kts | 19° |
| 2026-04-16 03:47 | -42.35438 | 148.06055 | 3549 ft | 102 kts | 19° |
| 2026-04-16 03:47 | -42.34910 | 148.06700 | 3549 ft | 102 kts | 20° |
| 2026-04-16 03:48 | -42.34386 | 148.07339 | 3549 ft | 100 kts | 18° |
| 2026-04-16 03:48 | -42.33880 | 148.07957 | 3547 ft | 99 kts | 17° |
| 2026-04-16 03:48 | -42.33362 | 148.08586 | 3548 ft | 100 kts | 19° |
| 2026-04-16 03:48 | -42.32842 | 148.09217 | 3548 ft | 100 kts | 19° |
| 2026-04-16 03:49 | -42.32318 | 148.09851 | 3554 ft | 101 kts | 19° |
| 2026-04-16 03:49 | -42.31796 | 148.10484 | 3553 ft | 101 kts | 19° |
| 2026-04-16 03:49 | -42.31276 | 148.11115 | 3551 ft | 100 kts | 19° |
| 2026-04-16 03:49 | -42.30758 | 148.11743 | 3552 ft | 101 kts | 19° |
| 2026-04-16 03:50 | -42.30243 | 148.12370 | 3551 ft | 99 kts | 17° |
| 2026-04-16 03:50 | -42.29725 | 148.12996 | 3546 ft | 101 kts | 19° |
| 2026-04-16 03:50 | -42.29204 | 148.13629 | 3536 ft | 100 kts | 14° |
| 2026-04-16 03:50 | -42.28685 | 148.14258 | 3543 ft | 100 kts | 14° |
| 2026-04-16 03:51 | -42.28166 | 148.14887 | 3547 ft | 100 kts | 13° |
| 2026-04-16 03:51 | -42.27652 | 148.15511 | 3549 ft | 99 kts | 13° |
| 2026-04-16 03:51 | -42.27139 | 148.16130 | 3550 ft | 98 kts | 14° |
| 2026-04-16 03:51 | -42.26635 | 148.16741 | 3549 ft | 98 kts | 14° |
| 2026-04-16 03:52 | -42.26124 | 148.17360 | 3553 ft | 99 kts | 14° |
| 2026-04-16 03:52 | -42.25607 | 148.17983 | 3552 ft | 101 kts | 15° |
| 2026-04-16 03:52 | -42.25086 | 148.18615 | 3552 ft | 100 kts | 15° |
| 2026-04-16 03:52 | -42.24564 | 148.19248 | 3553 ft | 101 kts | 14° |
| 2026-04-16 03:53 | -42.24041 | 148.19879 | 3554 ft | 100 kts | 14° |
| 2026-04-16 03:53 | -42.23522 | 148.20505 | 3554 ft | 99 kts | 13° |
| 2026-04-16 03:53 | -42.23011 | 148.21121 | 3552 ft | 98 kts | 12° |
| 2026-04-16 03:53 | -42.22507 | 148.21727 | 3552 ft | 98 kts | 13° |
| 2026-04-16 03:54 | -42.21995 | 148.22342 | 3549 ft | 98 kts | 14° |
| 2026-04-16 03:54 | -42.21481 | 148.22961 | 3549 ft | 100 kts | 15° |
| 2026-04-16 03:54 | -42.20960 | 148.23589 | 3549 ft | 100 kts | 15° |
| 2026-04-16 03:54 | -42.20443 | 148.24217 | 3551 ft | 99 kts | 14° |
| 2026-04-16 03:55 | -42.19927 | 148.24840 | 3548 ft | 100 kts | 13° |
| 2026-04-16 03:55 | -42.19409 | 148.25466 | 3549 ft | 101 kts | 14° |
| 2026-04-16 03:55 | -42.18892 | 148.26093 | 3548 ft | 99 kts | 14° |
| 2026-04-16 03:55 | -42.18374 | 148.26718 | 3541 ft | 100 kts | 14° |
| 2026-04-16 03:56 | -42.17855 | 148.27345 | 3506 ft | 99 kts | 14° |
| 2026-04-16 03:56 | -42.17355 | 148.27938 | 3080 ft | 93 kts | 12° |
| 2026-04-16 03:56 | -42.16863 | 148.28508 | 2708 ft | 95 kts | 15° |
| 2026-04-16 03:56 | -42.16369 | 148.29091 | 2497 ft | 92 kts | 17° |
| 2026-04-16 03:57 | -42.15853 | 148.29693 | 2250 ft | 105 kts | 20° |
| 2026-04-16 03:57 | -42.15333 | 148.30321 | 1999 ft | 94 kts | 29° |
| 2026-04-16 03:57 | -42.14883 | 148.30878 | 1868 ft | 89 kts | 17° |
| 2026-04-16 03:57 | -42.14388 | 148.31453 | 1646 ft | 96 kts | 20° |
| 2026-04-16 03:58 | -42.13886 | 148.32045 | 1418 ft | 95 kts | 22° |
| 2026-04-16 03:58 | -42.13415 | 148.32616 | 1192 ft | 88 kts | 19° |
| 2026-04-16 03:58 | -42.13028 | 148.33105 | 961 ft | 65 kts | 12° |
| 2026-04-16 03:58 | -42.12730 | 148.33480 | 737 ft | 60 kts | 7° |
| 2026-04-16 03:59 | -42.12447 | 148.33882 | 739 ft | 59 kts | 21° |
| 2026-04-16 03:59 | -42.12200 | 148.34306 | 764 ft | 56 kts | 24° |
| 2026-04-16 03:59 | -42.11907 | 148.34536 | 749 ft | 36 kts | 309° |
| 2026-04-16 03:59 | -42.11983 | 148.34286 | 938 ft | 30 kts | 262° |
| 2026-04-16 04:00 | -42.12161 | 148.34107 | 1159 ft | 30 kts | 226° |
| 2026-04-16 04:00 | -42.12342 | 148.34047 | 1158 ft | 23 kts | 54° |
| 2026-04-16 04:00 | -42.12401 | 148.34276 | 660 ft | 30 kts | 359° |
| 2026-04-16 04:00 | -42.12330 | 148.34314 | 657 ft | 26 kts | 315° |
| 2026-04-16 04:01 | -42.12208 | 148.34152 | 735 ft | 8 kts | 303° |
| 2026-04-16 04:01 | -42.12222 | 148.34188 | 639 ft | 5 kts | 302° |
| 2026-04-16 04:01 | -42.12212 | 148.34175 | 523 ft | 2 kts | 314° |
| 2026-04-16 04:01 | -42.12207 | 148.34110 | 488 ft | 4 kts | 311° |
| 2026-04-16 04:02 | -42.12211 | 148.34108 | 496 ft | 0 kts | 308° |
| 2026-04-16 04:02 | -42.12207 | 148.34104 | 458 ft | 1 kts | 308° |
| 2026-04-16 04:02 | -42.12205 | 148.34103 | 417 ft | 0 kts | 308° |
| 2026-04-16 04:02 | -42.12199 | 148.34104 | 409 ft | 1 kts | 308° |
| 2026-04-16 04:03 | -42.12205 | 148.34102 | 418 ft | 0 kts | 309° |
| 2026-04-16 04:03 | -42.12205 | 148.34103 | 402 ft | 0 kts | 308° |
| 2026-04-16 04:04 | -42.12203 | 148.34104 | 402 ft | 0 kts | 308° |
| 2026-04-16 04:04 | -42.12204 | 148.34103 | 430 ft | 0 kts | 308° |
| 2026-04-16 04:04 | -42.12202 | 148.34102 | 461 ft | 1 kts | 304° |
| 2026-04-16 04:04 | -42.12261 | 148.33966 | 543 ft | 32 kts | 265° |
| 2026-04-16 04:05 | -42.12366 | 148.33675 | 537 ft | 37 kts | 249° |
| 2026-04-16 04:05 | -42.12476 | 148.33313 | 560 ft | 46 kts | 240° |
| 2026-04-16 04:05 | -42.12599 | 148.32862 | 619 ft | 56 kts | 238° |
| 2026-04-16 04:05 | -42.12734 | 148.32325 | 628 ft | 65 kts | 237° |
| 2026-04-16 04:06 | -42.12874 | 148.31720 | 680 ft | 71 kts | 242° |
| 2026-04-16 04:06 | -42.13037 | 148.31075 | 676 ft | 74 kts | 236° |
| 2026-04-16 04:06 | -42.13269 | 148.30444 | 667 ft | 77 kts | 230° |
| 2026-04-16 04:06 | -42.13517 | 148.29830 | 683 ft | 73 kts | 229° |
| 2026-04-16 04:07 | -42.13785 | 148.29264 | 630 ft | 72 kts | 224° |
| 2026-04-16 04:07 | -42.14326 | 148.28188 | 418 ft | 58 kts | 223° |
| 2026-04-16 04:07 | -42.14534 | 148.27784 | 134 ft | 41 kts | 206° |
| 2026-04-16 04:08 | -42.14627 | 148.27646 | 60 ft | 5 kts | 196° |
| 2026-04-16 04:08 | -42.14653 | 148.27619 | 23 ft | 0 kts | 188° |
| 2026-04-16 04:08 | -42.14655 | 148.27619 | 10 ft | 0 kts | 187° |
| 2026-04-16 04:13 | -42.14655 | 148.27620 | 21 ft | 2 kts | 186° |
| 2026-04-16 04:13 | -42.14707 | 148.27748 | 245 ft | 56 kts | 106° |
| 2026-04-16 04:14 | -42.14915 | 148.28321 | 511 ft | 71 kts | 99° |
| 2026-04-16 04:14 | -42.14878 | 148.28923 | 836 ft | 66 kts | 48° |
| 2026-04-16 04:14 | -42.14566 | 148.29547 | 1019 ft | 97 kts | 42° |
| 2026-04-16 04:14 | -42.14205 | 148.30319 | 942 ft | 118 kts | 44° |
| 2026-04-16 04:15 | -42.13763 | 148.31329 | 814 ft | 131 kts | 52° |
| 2026-04-16 04:15 | -42.13385 | 148.32290 | 866 ft | 101 kts | 68° |
| 2026-04-16 04:15 | -42.13216 | 148.32970 | 875 ft | 51 kts | 40° |
| 2026-04-16 04:15 | -42.13047 | 148.33308 | 760 ft | 44 kts | 8° |
| 2026-04-16 04:16 | -42.12806 | 148.33566 | 760 ft | 45 kts | 18° |
| 2026-04-16 04:16 | -42.12531 | 148.33773 | 781 ft | 39 kts | 33° |
| 2026-04-16 04:16 | -42.12320 | 148.33915 | 771 ft | 25 kts | 35° |
| 2026-04-16 04:16 | -42.12245 | 148.34002 | 754 ft | 14 kts | 38° |
| 2026-04-16 04:17 | -42.12210 | 148.34110 | 713 ft | 9 kts | 36° |
| 2026-04-16 04:17 | -42.12203 | 148.34138 | 565 ft | 6 kts | 47° |
| 2026-04-16 04:17 | -42.12201 | 148.34154 | 468 ft | 3 kts | 51° |
| 2026-04-16 04:17 | -42.12197 | 148.34154 | 419 ft | 0 kts | 52° |
| 2026-04-16 04:18 | -42.12197 | 148.34156 | 429 ft | 0 kts | 52° |
| 2026-04-16 04:19 | -42.12197 | 148.34157 | 420 ft | 0 kts | 52° |
| 2026-04-16 04:19 | -42.12196 | 148.34156 | 453 ft | 0 kts | 52° |
| 2026-04-16 04:19 | -42.12197 | 148.34157 | 437 ft | 0 kts | 51° |
| 2026-04-16 04:20 | -42.12196 | 148.34156 | 437 ft | 0 kts | 52° |
| 2026-04-16 04:20 | -42.12197 | 148.34157 | 439 ft | 0 kts | 51° |
| 2026-04-16 04:20 | -42.12195 | 148.34158 | 545 ft | 3 kts | 52° |
| 2026-04-16 04:20 | -42.12108 | 148.34223 | 545 ft | 30 kts | 3° |
| 2026-04-16 04:21 | -42.12103 | 148.33893 | 463 ft | 56 kts | 265° |
| 2026-04-16 04:21 | -42.12385 | 148.33507 | 462 ft | 54 kts | 242° |
| 2026-04-16 04:21 | -42.12616 | 148.33206 | 589 ft | 44 kts | 266° |
| 2026-04-16 04:21 | -42.12714 | 148.32809 | 766 ft | 48 kts | 271° |
| 2026-04-16 04:22 | -42.12661 | 148.32309 | 903 ft | 62 kts | 278° |
| 2026-04-16 04:22 | -42.12456 | 148.31735 | 998 ft | 75 kts | 286° |
| 2026-04-16 04:22 | -42.12285 | 148.31092 | 1095 ft | 76 kts | 277° |
| 2026-04-16 04:22 | -42.12581 | 148.30419 | 1195 ft | 96 kts | 238° |
| 2026-04-16 04:23 | -42.13247 | 148.30033 | 1308 ft | 106 kts | 217° |
| 2026-04-16 04:23 | -42.13921 | 148.29727 | 1418 ft | 98 kts | 222° |
| 2026-04-16 04:23 | -42.14514 | 148.29388 | 1519 ft | 88 kts | 227° |
| 2026-04-16 04:23 | -42.15026 | 148.29043 | 1630 ft | 78 kts | 231° |
| 2026-04-16 04:24 | -42.15472 | 148.28703 | 1702 ft | 70 kts | 239° |
| 2026-04-16 04:24 | -42.15878 | 148.28332 | 1801 ft | 72 kts | 239° |
| 2026-04-16 04:24 | -42.16287 | 148.27945 | 1898 ft | 75 kts | 238° |
| 2026-04-16 04:24 | -42.16770 | 148.27437 | 2011 ft | 92 kts | 238° |
| 2026-04-16 04:25 | -42.17118 | 148.27069 | 2065 ft | 101 kts | 238° |
| 2026-04-16 04:25 | -42.17875 | 148.26238 | 2196 ft | 107 kts | 238° |
| 2026-04-16 04:25 | -42.18252 | 148.25813 | 2280 ft | 101 kts | 239° |
| 2026-04-16 04:25 | -42.18939 | 148.25022 | 2401 ft | 98 kts | 243° |
| 2026-04-16 04:26 | -42.19447 | 148.24405 | 2503 ft | 98 kts | 243° |
| 2026-04-16 04:26 | -42.19951 | 148.23784 | 2605 ft | 98 kts | 243° |
| 2026-04-16 04:26 | -42.20448 | 148.23168 | 2709 ft | 95 kts | 244° |
| 2026-04-16 04:26 | -42.20924 | 148.22576 | 2805 ft | 92 kts | 246° |
| 2026-04-16 04:27 | -42.21231 | 148.22186 | 2871 ft | 92 kts | 246° |
| 2026-04-16 04:27 | -42.21856 | 148.21377 | 3006 ft | 95 kts | 245° |
| 2026-04-16 04:27 | -42.22169 | 148.20974 | 3115 ft | 93 kts | 245° |
| 2026-04-16 04:27 | -42.22635 | 148.20372 | 3217 ft | 92 kts | 245° |
| 2026-04-16 04:28 | -42.23100 | 148.19775 | 3264 ft | 92 kts | 246° |
| 2026-04-16 04:28 | -42.23563 | 148.19177 | 3285 ft | 91 kts | 246° |
| 2026-04-16 04:28 | -42.24015 | 148.18595 | 3292 ft | 90 kts | 247° |
| 2026-04-16 04:28 | -42.24467 | 148.18007 | 3298 ft | 90 kts | 247° |
| 2026-04-16 04:29 | -42.24918 | 148.17419 | 3301 ft | 90 kts | 246° |
| 2026-04-16 04:29 | -42.25368 | 148.16832 | 3302 ft | 90 kts | 246° |
| 2026-04-16 04:29 | -42.25816 | 148.16247 | 3302 ft | 89 kts | 246° |
| 2026-04-16 04:29 | -42.26265 | 148.15653 | 3301 ft | 92 kts | 246° |
| 2026-04-16 04:30 | -42.26724 | 148.15047 | 3301 ft | 92 kts | 246° |
| 2026-04-16 04:30 | -42.27176 | 148.14453 | 3301 ft | 92 kts | 246° |
| 2026-04-16 04:30 | -42.27637 | 148.13846 | 3304 ft | 93 kts | 246° |
| 2026-04-16 04:30 | -42.28102 | 148.13232 | 3304 ft | 93 kts | 246° |
| 2026-04-16 04:31 | -42.28564 | 148.12628 | 3305 ft | 91 kts | 247° |
| 2026-04-16 04:31 | -42.29016 | 148.12039 | 3308 ft | 90 kts | 247° |
| 2026-04-16 04:31 | -42.29475 | 148.11423 | 3309 ft | 97 kts | 243° |
| 2026-04-16 04:31 | -42.29960 | 148.10776 | 3308 ft | 98 kts | 242° |
| 2026-04-16 04:32 | -42.30441 | 148.10148 | 3305 ft | 96 kts | 243° |
| 2026-04-16 04:32 | -42.30920 | 148.09517 | 3302 ft | 97 kts | 244° |
| 2026-04-16 04:32 | -42.31403 | 148.08878 | 3300 ft | 98 kts | 243° |
| 2026-04-16 04:32 | -42.31894 | 148.08228 | 3301 ft | 99 kts | 242° |
| 2026-04-16 04:33 | -42.32378 | 148.07595 | 3299 ft | 96 kts | 244° |
| 2026-04-16 04:33 | -42.32861 | 148.06953 | 3301 ft | 99 kts | 242° |
| 2026-04-16 04:33 | -42.33347 | 148.06313 | 3299 ft | 97 kts | 243° |
| 2026-04-16 04:33 | -42.33826 | 148.05684 | 3301 ft | 95 kts | 244° |
| 2026-04-16 04:34 | -42.34299 | 148.05056 | 3297 ft | 96 kts | 244° |
| 2026-04-16 04:34 | -42.34778 | 148.04420 | 3298 ft | 96 kts | 243° |
| 2026-04-16 04:34 | -42.35258 | 148.03783 | 3295 ft | 97 kts | 243° |
| 2026-04-16 04:34 | -42.35735 | 148.03152 | 3293 ft | 97 kts | 242° |
| 2026-04-16 04:35 | -42.36219 | 148.02508 | 3300 ft | 97 kts | 242° |
| 2026-04-16 04:35 | -42.36696 | 148.01880 | 3298 ft | 95 kts | 243° |
| 2026-04-16 04:35 | -42.37171 | 148.01246 | 3298 ft | 96 kts | 245° |
| 2026-04-16 04:35 | -42.37645 | 148.00619 | 3296 ft | 96 kts | 245° |
| 2026-04-16 04:36 | -42.38126 | 147.99974 | 3299 ft | 98 kts | 243° |
| 2026-04-16 04:36 | -42.38612 | 147.99331 | 3297 ft | 98 kts | 244° |
| 2026-04-16 04:36 | -42.39098 | 147.98688 | 3300 ft | 96 kts | 242° |
| 2026-04-16 04:36 | -42.39576 | 147.98054 | 3292 ft | 97 kts | 244° |
| 2026-04-16 04:37 | -42.40060 | 147.97406 | 3300 ft | 97 kts | 244° |
| 2026-04-16 04:37 | -42.40540 | 147.96771 | 3297 ft | 97 kts | 243° |
| 2026-04-16 04:37 | -42.41020 | 147.96126 | 3296 ft | 101 kts | 243° |
| 2026-04-16 04:37 | -42.41516 | 147.95470 | 3297 ft | 97 kts | 242° |
| 2026-04-16 04:38 | -42.41995 | 147.94835 | 3295 ft | 97 kts | 243° |
| 2026-04-16 04:38 | -42.42480 | 147.94198 | 3303 ft | 97 kts | 239° |
| 2026-04-16 04:38 | -42.42971 | 147.93565 | 3299 ft | 98 kts | 243° |
| 2026-04-16 04:38 | -42.43458 | 147.92933 | 3290 ft | 97 kts | 245° |
| 2026-04-16 04:39 | -42.43956 | 147.92257 | 3297 ft | 101 kts | 242° |
| 2026-04-16 04:39 | -42.44446 | 147.91605 | 3284 ft | 98 kts | 239° |
| 2026-04-16 04:39 | -42.44915 | 147.90968 | 3294 ft | 98 kts | 239° |
| 2026-04-16 04:39 | -42.45403 | 147.90313 | 3301 ft | 98 kts | 238° |
| 2026-04-16 04:40 | -42.45888 | 147.89672 | 3296 ft | 97 kts | 238° |
| 2026-04-16 04:40 | -42.46374 | 147.89025 | 3295 ft | 99 kts | 239° |
| 2026-04-16 04:40 | -42.46865 | 147.88375 | 3291 ft | 99 kts | 239° |
| 2026-04-16 04:40 | -42.47362 | 147.87700 | 3306 ft | 101 kts | 238° |
| 2026-04-16 04:41 | -42.47855 | 147.87052 | 3292 ft | 100 kts | 239° |
| 2026-04-16 04:41 | -42.48354 | 147.86383 | 3300 ft | 100 kts | 239° |
| 2026-04-16 04:41 | -42.48853 | 147.85716 | 3303 ft | 101 kts | 240° |
| 2026-04-16 04:41 | -42.49366 | 147.85024 | 3299 ft | 107 kts | 239° |
| 2026-04-16 04:42 | -42.49883 | 147.84340 | 3292 ft | 104 kts | 239° |
| 2026-04-16 04:42 | -42.50391 | 147.83666 | 3298 ft | 101 kts | 237° |
| 2026-04-16 04:42 | -42.50893 | 147.83002 | 3294 ft | 101 kts | 238° |
| 2026-04-16 04:42 | -42.51388 | 147.82346 | 3296 ft | 98 kts | 239° |
| 2026-04-16 04:43 | -42.51872 | 147.81703 | 3295 ft | 98 kts | 240° |
| 2026-04-16 04:43 | -42.52361 | 147.81051 | 3301 ft | 99 kts | 240° |
| 2026-04-16 04:43 | -42.52852 | 147.80399 | 3285 ft | 100 kts | 239° |
| 2026-04-16 04:43 | -42.53353 | 147.79718 | 3292 ft | 102 kts | 239° |
| 2026-04-16 04:44 | -42.53848 | 147.79061 | 3291 ft | 99 kts | 239° |
| 2026-04-16 04:44 | -42.54339 | 147.78407 | 3293 ft | 98 kts | 239° |
| 2026-04-16 04:44 | -42.54823 | 147.77761 | 3288 ft | 99 kts | 239° |
| 2026-04-16 04:44 | -42.55309 | 147.77114 | 3289 ft | 96 kts | 239° |
| 2026-04-16 04:45 | -42.55783 | 147.76484 | 3286 ft | 96 kts | 241° |
| 2026-04-16 04:45 | -42.56265 | 147.75828 | 3285 ft | 98 kts | 240° |
| 2026-04-16 04:45 | -42.56752 | 147.75170 | 3282 ft | 101 kts | 240° |
| 2026-04-16 04:45 | -42.57248 | 147.74502 | 3293 ft | 99 kts | 239° |
| 2026-04-16 04:46 | -42.57738 | 147.73850 | 3272 ft | 100 kts | 240° |
| 2026-04-16 04:46 | -42.58234 | 147.73190 | 3279 ft | 100 kts | 239° |
| 2026-04-16 04:46 | -42.58740 | 147.72502 | 3261 ft | 115 kts | 239° |
| 2026-04-16 04:46 | -42.59285 | 147.71784 | 3290 ft | 100 kts | 239° |
| 2026-04-16 04:47 | -42.59799 | 147.71099 | 3305 ft | 99 kts | 239° |
| 2026-04-16 04:47 | -42.60275 | 147.70475 | 3271 ft | 96 kts | 240° |
| 2026-04-16 04:47 | -42.60752 | 147.69827 | 3276 ft | 96 kts | 240° |
| 2026-04-16 04:47 | -42.61226 | 147.69186 | 3273 ft | 98 kts | 241° |
| 2026-04-16 04:48 | -42.61711 | 147.68525 | 3261 ft | 101 kts | 241° |
| 2026-04-16 04:48 | -42.62199 | 147.67864 | 3262 ft | 99 kts | 241° |
| 2026-04-16 04:48 | -42.62690 | 147.67197 | 3264 ft | 98 kts | 239° |
| 2026-04-16 04:48 | -42.63173 | 147.66536 | 3288 ft | 94 kts | 240° |
| 2026-04-16 04:49 | -42.63598 | 147.65991 | 3297 ft | 83 kts | 243° |
| 2026-04-16 04:49 | -42.64018 | 147.65427 | 3281 ft | 85 kts | 243° |
| 2026-04-16 04:49 | -42.64449 | 147.64846 | 3263 ft | 90 kts | 243° |
| 2026-04-16 04:49 | -42.64892 | 147.64246 | 3268 ft | 89 kts | 241° |
| 2026-04-16 04:50 | -42.65327 | 147.63665 | 3252 ft | 89 kts | 243° |
| 2026-04-16 04:50 | -42.65771 | 147.63055 | 3260 ft | 90 kts | 241° |
| 2026-04-16 04:50 | -42.66205 | 147.62474 | 3232 ft | 83 kts | 247° |
| 2026-04-16 04:50 | -42.66566 | 147.62029 | 3018 ft | 28 kts | 334° |